sensor_id;sensor_type;location;lat;lon;timestamp;pressure;altitude;pressure_sealevel;temperature;humidity
5755;BME280;2902;42.130;24.732;2023-07-29T00:01:30;99198.00;;;24.93;38.21
5755;BME280;2902;42.130;24.732;2023-07-29T00:03:57;99199.66;;;25.08;37.72
5755;BME280;2902;42.130;24.732;2023-07-29T00:06:23;99200.00;;;25.20;37.59
5755;BME280;2902;42.130;24.732;2023-07-29T00:08:50;99200.38;;;25.32;37.56
5755;BME280;2902;42.130;24.732;2023-07-29T00:11:17;99192.50;;;25.30;37.39
5755;BME280;2902;42.130;24.732;2023-07-29T00:13:43;99189.50;;;25.32;37.35
5755;BME280;2902;42.130;24.732;2023-07-29T00:16:11;99189.03;;;25.25;37.49
5755;BME280;2902;42.130;24.732;2023-07-29T00:18:40;99190.81;;;25.16;37.81
5755;BME280;2902;42.130;24.732;2023-07-29T00:21:07;99191.34;;;25.18;38.04
5755;BME280;2902;42.130;24.732;2023-07-29T00:23:34;99195.78;;;25.14;38.39
5755;BME280;2902;42.130;24.732;2023-07-29T00:26:00;99196.84;;;25.13;38.54
5755;BME280;2902;42.130;24.732;2023-07-29T00:28:27;99203.94;;;25.14;38.31
5755;BME280;2902;42.130;24.732;2023-07-29T00:30:54;99198.84;;;25.07;38.16
5755;BME280;2902;42.130;24.732;2023-07-29T00:33:22;99193.78;;;25.00;38.79
5755;BME280;2902;42.130;24.732;2023-07-29T00:35:49;99198.97;;;24.83;39.36
5755;BME280;2902;42.130;24.732;2023-07-29T00:38:16;99199.50;;;24.85;39.76
5755;BME280;2902;42.130;24.732;2023-07-29T00:40:42;99208.66;;;24.89;39.55
5755;BME280;2902;42.130;24.732;2023-07-29T00:43:09;99202.22;;;24.85;39.59
5755;BME280;2902;42.130;24.732;2023-07-29T00:45:36;99198.19;;;24.83;39.26
5755;BME280;2902;42.130;24.732;2023-07-29T00:48:04;99208.50;;;24.81;39.86
5755;BME280;2902;42.130;24.732;2023-07-29T00:50:32;99199.91;;;24.74;39.99
5755;BME280;2902;42.130;24.732;2023-07-29T00:52:59;99195.22;;;24.61;40.50
5755;BME280;2902;42.130;24.732;2023-07-29T00:55:26;99196.75;;;24.48;41.01
5755;BME280;2902;42.130;24.732;2023-07-29T00:57:54;99189.03;;;24.37;41.53
5755;BME280;2902;42.130;24.732;2023-07-29T01:00:21;99187.84;;;24.24;41.74
5755;BME280;2902;42.130;24.732;2023-07-29T01:02:48;99180.75;;;24.28;41.77
5755;BME280;2902;42.130;24.732;2023-07-29T01:05:16;99185.06;;;24.29;41.60
5755;BME280;2902;42.130;24.732;2023-07-29T01:07:49;99180.75;;;24.28;41.94
5755;BME280;2902;42.130;24.732;2023-07-29T01:10:24;99190.41;;;24.34;41.87
5755;BME280;2902;42.130;24.732;2023-07-29T01:12:56;99197.78;;;24.52;41.29
5755;BME280;2902;42.130;24.732;2023-07-29T01:15:32;99193.59;;;24.60;41.36
5755;BME280;2902;42.130;24.732;2023-07-29T01:18:05;99190.97;;;24.73;40.85
5755;BME280;2902;42.130;24.732;2023-07-29T01:20:33;99186.50;;;24.82;41.04
5755;BME280;2902;42.130;24.732;2023-07-29T01:23:04;99185.53;;;24.92;40.43
5755;BME280;2902;42.130;24.732;2023-07-29T01:25:32;99192.38;;;24.89;40.62
5755;BME280;2902;42.130;24.732;2023-07-29T01:27:59;99193.38;;;24.93;40.48
5755;BME280;2902;42.130;24.732;2023-07-29T01:30:31;99195.38;;;24.88;40.69
5755;BME280;2902;42.130;24.732;2023-07-29T01:33:04;99192.38;;;24.89;40.17
5755;BME280;2902;42.130;24.732;2023-07-29T01:35:36;99197.84;;;24.84;40.40
5755;BME280;2902;42.130;24.732;2023-07-29T01:38:10;99197.94;;;24.79;40.42
5755;BME280;2902;42.130;24.732;2023-07-29T01:40:42;99188.47;;;24.77;40.51
5755;BME280;2902;42.130;24.732;2023-07-29T01:43:09;99195.31;;;24.74;40.95
5755;BME280;2902;42.130;24.732;2023-07-29T01:45:37;99198.97;;;24.65;40.77
5755;BME280;2902;42.130;24.732;2023-07-29T01:48:04;99198.66;;;24.48;41.25
5755;BME280;2902;42.130;24.732;2023-07-29T01:50:31;99193.06;;;24.39;41.71
5755;BME280;2902;42.130;24.732;2023-07-29T01:52:58;99198.72;;;24.43;41.99
5755;BME280;2902;42.130;24.732;2023-07-29T01:55:25;99202.13;;;24.53;41.77
5755;BME280;2902;42.130;24.732;2023-07-29T01:57:53;99198.81;;;24.56;41.72
5755;BME280;2902;42.130;24.732;2023-07-29T02:00:21;99203.09;;;24.62;41.63
5755;BME280;2902;42.130;24.732;2023-07-29T02:02:47;99205.53;;;24.64;40.72
5755;BME280;2902;42.130;24.732;2023-07-29T02:05:14;99209.06;;;24.59;40.82
5755;BME280;2902;42.130;24.732;2023-07-29T02:07:41;99200.56;;;24.47;41.18
5755;BME280;2902;42.130;24.732;2023-07-29T02:10:08;99204.53;;;24.36;41.77
5755;BME280;2902;42.130;24.732;2023-07-29T02:12:35;99204.53;;;24.36;42.02
5755;BME280;2902;42.130;24.732;2023-07-29T02:15:03;99216.13;;;24.42;41.86
5755;BME280;2902;42.130;24.732;2023-07-29T02:17:30;99224.94;;;24.52;41.62
5755;BME280;2902;42.130;24.732;2023-07-29T02:19:57;99224.25;;;24.65;41.43
5755;BME280;2902;42.130;24.732;2023-07-29T02:22:24;99231.28;;;24.66;41.44
5755;BME280;2902;42.130;24.732;2023-07-29T02:24:50;99229.16;;;24.63;41.21
5755;BME280;2902;42.130;24.732;2023-07-29T02:27:17;99209.69;;;24.56;41.95
5755;BME280;2902;42.130;24.732;2023-07-29T02:29:44;99212.69;;;24.55;42.32
5755;BME280;2902;42.130;24.732;2023-07-29T02:32:12;99213.06;;;24.48;42.59
5755;BME280;2902;42.130;24.732;2023-07-29T02:34:38;99215.53;;;24.45;42.59
5755;BME280;2902;42.130;24.732;2023-07-29T02:37:05;99208.28;;;24.40;42.65
5755;BME280;2902;42.130;24.732;2023-07-29T02:39:32;99215.31;;;24.41;42.94
5755;BME280;2902;42.130;24.732;2023-07-29T02:41:58;99218.03;;;24.41;42.71
5755;BME280;2902;42.130;24.732;2023-07-29T02:44:25;99211.94;;;24.31;42.69
5755;BME280;2902;42.130;24.732;2023-07-29T02:46:52;99214.44;;;24.27;43.36
5755;BME280;2902;42.130;24.732;2023-07-29T02:49:22;99225.78;;;24.29;43.43
5755;BME280;2902;42.130;24.732;2023-07-29T02:51:49;99226.91;;;24.28;43.44
5755;BME280;2902;42.130;24.732;2023-07-29T02:54:15;99219.53;;;24.29;43.31
5755;BME280;2902;42.130;24.732;2023-07-29T02:56:42;99220.94;;;24.26;43.51
5755;BME280;2902;42.130;24.732;2023-07-29T02:59:09;99228.13;;;24.17;43.49
5755;BME280;2902;42.130;24.732;2023-07-29T03:01:35;99216.00;;;24.10;44.06
5755;BME280;2902;42.130;24.732;2023-07-29T03:04:02;99231.00;;;24.02;44.28
5755;BME280;2902;42.130;24.732;2023-07-29T03:06:30;99228.81;;;24.04;44.50
5755;BME280;2902;42.130;24.732;2023-07-29T03:08:57;99226.03;;;24.09;44.15
5755;BME280;2902;42.130;24.732;2023-07-29T03:11:24;99232.72;;;24.17;44.00
5755;BME280;2902;42.130;24.732;2023-07-29T03:13:50;99234.00;;;24.24;43.92
5755;BME280;2902;42.130;24.732;2023-07-29T03:16:17;99228.00;;;24.27;43.97
5755;BME280;2902;42.130;24.732;2023-07-29T03:18:44;99229.16;;;24.21;43.54
5755;BME280;2902;42.130;24.732;2023-07-29T03:21:11;99234.25;;;24.04;43.57
5755;BME280;2902;42.130;24.732;2023-07-29T03:23:39;99238.44;;;23.97;43.98
5755;BME280;2902;42.130;24.732;2023-07-29T03:26:06;99243.88;;;23.92;44.02
5755;BME280;2902;42.130;24.732;2023-07-29T03:28:37;99248.25;;;23.88;44.04
5755;BME280;2902;42.130;24.732;2023-07-29T03:31:04;99242.00;;;23.92;44.50
5755;BME280;2902;42.130;24.732;2023-07-29T03:33:31;99245.63;;;24.06;44.03
5755;BME280;2902;42.130;24.732;2023-07-29T03:35:57;99242.78;;;24.16;42.97
5755;BME280;2902;42.130;24.732;2023-07-29T03:38:24;99246.47;;;24.25;43.11
5755;BME280;2902;42.130;24.732;2023-07-29T03:40:52;99253.47;;;24.31;43.23
5755;BME280;2902;42.130;24.732;2023-07-29T03:43:20;99254.44;;;24.40;42.47
5755;BME280;2902;42.130;24.732;2023-07-29T03:45:46;99254.75;;;24.57;42.23
5755;BME280;2902;42.130;24.732;2023-07-29T03:48:13;99259.03;;;24.63;42.09
5755;BME280;2902;42.130;24.732;2023-07-29T03:50:40;99252.19;;;24.66;41.92
5755;BME280;2902;42.130;24.732;2023-07-29T03:53:06;99258.44;;;24.66;41.88
5755;BME280;2902;42.130;24.732;2023-07-29T03:55:35;99262.38;;;24.79;41.56
5755;BME280;2902;42.130;24.732;2023-07-29T03:58:03;99273.88;;;24.89;41.61
5755;BME280;2902;42.130;24.732;2023-07-29T04:00:30;99258.16;;;24.86;41.73
5755;BME280;2902;42.130;24.732;2023-07-29T04:02:56;99274.16;;;25.07;41.27
5755;BME280;2902;42.130;24.732;2023-07-29T04:05:23;99274.44;;;25.24;41.74
5755;BME280;2902;42.130;24.732;2023-07-29T04:07:50;99282.94;;;26.27;39.51
5755;BME280;2902;42.130;24.732;2023-07-29T04:10:18;99281.59;;;27.14;37.40
5755;BME280;2902;42.130;24.732;2023-07-29T04:12:45;99288.28;;;27.96;36.00
5755;BME280;2902;42.130;24.732;2023-07-29T04:15:13;99290.34;;;28.68;34.76
5755;BME280;2902;42.130;24.732;2023-07-29T04:17:40;99290.22;;;29.42;33.25
5755;BME280;2902;42.130;24.732;2023-07-29T04:20:07;99295.16;;;29.82;32.29
5755;BME280;2902;42.130;24.732;2023-07-29T04:22:34;99294.66;;;30.35;31.27
5755;BME280;2902;42.130;24.732;2023-07-29T04:25:00;99294.53;;;30.60;30.78
5755;BME280;2902;42.130;24.732;2023-07-29T04:27:30;99300.41;;;31.20;30.42
5755;BME280;2902;42.130;24.732;2023-07-29T04:29:56;99295.53;;;31.46;29.46
5755;BME280;2902;42.130;24.732;2023-07-29T04:32:24;99311.72;;;31.92;28.94
5755;BME280;2902;42.130;24.732;2023-07-29T04:34:51;99309.06;;;31.84;28.68
5755;BME280;2902;42.130;24.732;2023-07-29T04:37:18;99312.63;;;31.96;28.56
5755;BME280;2902;42.130;24.732;2023-07-29T04:39:44;99311.13;;;32.43;28.59
5755;BME280;2902;42.130;24.732;2023-07-29T04:42:12;99314.91;;;32.51;28.27
5755;BME280;2902;42.130;24.732;2023-07-29T04:44:38;99305.72;;;32.71;28.02
5755;BME280;2902;42.130;24.732;2023-07-29T04:47:07;99306.06;;;32.45;28.34
5755;BME280;2902;42.130;24.732;2023-07-29T04:49:35;99305.06;;;32.62;28.40
5755;BME280;2902;42.130;24.732;2023-07-29T04:52:02;99301.94;;;32.63;27.90
5755;BME280;2902;42.130;24.732;2023-07-29T04:54:28;99300.56;;;32.93;27.67
5755;BME280;2902;42.130;24.732;2023-07-29T04:56:55;99303.25;;;33.17;27.27
5755;BME280;2902;42.130;24.732;2023-07-29T04:59:22;99302.53;;;33.20;27.82
5755;BME280;2902;42.130;24.732;2023-07-29T05:01:49;99307.09;;;33.28;26.97
5755;BME280;2902;42.130;24.732;2023-07-29T05:04:15;99311.03;;;33.55;26.76
5755;BME280;2902;42.130;24.732;2023-07-29T05:06:44;99316.53;;;33.15;27.37
5755;BME280;2902;42.130;24.732;2023-07-29T05:09:14;99314.47;;;33.12;27.23
5755;BME280;2902;42.130;24.732;2023-07-29T05:11:41;99311.03;;;33.15;27.50
5755;BME280;2902;42.130;24.732;2023-07-29T05:14:09;99318.09;;;33.41;27.13
5755;BME280;2902;42.130;24.732;2023-07-29T05:16:35;99324.88;;;33.71;26.60
5755;BME280;2902;42.130;24.732;2023-07-29T05:19:02;99320.78;;;34.08;25.79
5755;BME280;2902;42.130;24.732;2023-07-29T05:21:29;99315.41;;;33.84;26.31
5755;BME280;2902;42.130;24.732;2023-07-29T05:23:57;99318.63;;;33.74;26.74
5755;BME280;2902;42.130;24.732;2023-07-29T05:26:24;99321.81;;;33.88;26.44
5755;BME280;2902;42.130;24.732;2023-07-29T05:28:51;99319.06;;;33.88;26.46
5755;BME280;2902;42.130;24.732;2023-07-29T05:31:17;99316.59;;;33.71;26.37
5755;BME280;2902;42.130;24.732;2023-07-29T05:33:44;99317.34;;;33.83;26.32
5755;BME280;2902;42.130;24.732;2023-07-29T05:36:11;99310.53;;;34.08;26.37
5755;BME280;2902;42.130;24.732;2023-07-29T05:38:38;99322.78;;;33.95;26.95
5755;BME280;2902;42.130;24.732;2023-07-29T05:41:08;99326.91;;;34.17;26.08
5755;BME280;2902;42.130;24.732;2023-07-29T05:43:35;99330.25;;;33.95;26.33
5755;BME280;2902;42.130;24.732;2023-07-29T05:46:01;99337.47;;;34.15;26.11
5755;BME280;2902;42.130;24.732;2023-07-29T05:48:28;99341.97;;;34.66;25.34
5755;BME280;2902;42.130;24.732;2023-07-29T05:50:55;99332.75;;;34.93;25.20
5755;BME280;2902;42.130;24.732;2023-07-29T05:53:22;99337.44;;;34.58;25.78
5755;BME280;2902;42.130;24.732;2023-07-29T05:55:48;99325.50;;;34.54;25.82
5755;BME280;2902;42.130;24.732;2023-07-29T05:58:16;99332.59;;;34.70;25.74
5755;BME280;2902;42.130;24.732;2023-07-29T06:00:43;99329.88;;;34.55;26.02
5755;BME280;2902;42.130;24.732;2023-07-29T06:03:10;99332.44;;;34.63;25.61
5755;BME280;2902;42.130;24.732;2023-07-29T06:05:36;99321.59;;;34.39;26.03
5755;BME280;2902;42.130;24.732;2023-07-29T06:08:03;99323.91;;;34.37;26.05
5755;BME280;2902;42.130;24.732;2023-07-29T06:10:30;99326.59;;;34.34;26.37
5755;BME280;2902;42.130;24.732;2023-07-29T06:12:57;99323.63;;;34.58;25.63
5755;BME280;2902;42.130;24.732;2023-07-29T06:15:25;99319.31;;;34.76;25.73
5755;BME280;2902;42.130;24.732;2023-07-29T06:17:51;99323.44;;;34.66;25.64
5755;BME280;2902;42.130;24.732;2023-07-29T06:20:18;99320.09;;;34.42;26.44
5755;BME280;2902;42.130;24.732;2023-07-29T06:22:45;99320.88;;;34.58;25.06
5755;BME280;2902;42.130;24.732;2023-07-29T06:25:11;99328.25;;;34.54;25.41
5755;BME280;2902;42.130;24.732;2023-07-29T06:27:38;99333.81;;;34.38;26.92
5755;BME280;2902;42.130;24.732;2023-07-29T06:30:06;99323.13;;;34.37;26.05
5755;BME280;2902;42.130;24.732;2023-07-29T06:32:34;99315.19;;;34.35;26.23
5755;BME280;2902;42.130;24.732;2023-07-29T06:35:01;99325.78;;;34.49;25.60
5755;BME280;2902;42.130;24.732;2023-07-29T06:37:28;99326.22;;;34.82;24.59
5755;BME280;2902;42.130;24.732;2023-07-29T06:39:55;99320.81;;;34.89;24.75
5755;BME280;2902;42.130;24.732;2023-07-29T06:42:21;99316.38;;;34.69;25.44
5755;BME280;2902;42.130;24.732;2023-07-29T06:44:48;99313.59;;;34.34;26.41
5755;BME280;2902;42.130;24.732;2023-07-29T06:47:15;99311.53;;;34.47;25.71
5755;BME280;2902;42.130;24.732;2023-07-29T06:49:43;99316.31;;;34.81;24.96
5755;BME280;2902;42.130;24.732;2023-07-29T06:52:09;99318.97;;;34.77;25.28
5755;BME280;2902;42.130;24.732;2023-07-29T06:54:36;99325.66;;;34.76;23.69
5755;BME280;2902;42.130;24.732;2023-07-29T06:57:03;99323.88;;;34.68;24.52
5755;BME280;2902;42.130;24.732;2023-07-29T06:59:30;99321.56;;;34.70;23.87
5755;BME280;2902;42.130;24.732;2023-07-29T07:01:57;99320.31;;;34.83;24.28
5755;BME280;2902;42.130;24.732;2023-07-29T07:04:25;99319.44;;;34.64;24.13
5755;BME280;2902;42.130;24.732;2023-07-29T07:06:53;99317.47;;;34.80;24.31
5755;BME280;2902;42.130;24.732;2023-07-29T07:09:20;99315.78;;;34.60;24.11
5755;BME280;2902;42.130;24.732;2023-07-29T07:11:46;99313.75;;;34.57;24.49
5755;BME280;2902;42.130;24.732;2023-07-29T07:14:13;99309.56;;;34.63;24.57
5755;BME280;2902;42.130;24.732;2023-07-29T07:16:40;99308.28;;;34.76;24.43
5755;BME280;2902;42.130;24.732;2023-07-29T07:19:06;99292.97;;;34.94;24.19
5755;BME280;2902;42.130;24.732;2023-07-29T07:21:33;99295.09;;;34.85;24.00
5755;BME280;2902;42.130;24.732;2023-07-29T07:24:01;99307.13;;;34.92;24.17
5755;BME280;2902;42.130;24.732;2023-07-29T07:26:28;99292.69;;;34.83;24.97
5755;BME280;2902;42.130;24.732;2023-07-29T07:28:54;99292.97;;;35.13;24.48
5755;BME280;2902;42.130;24.732;2023-07-29T07:31:22;99288.47;;;35.24;24.04
5755;BME280;2902;42.130;24.732;2023-07-29T07:33:48;99287.75;;;35.46;23.61
5755;BME280;2902;42.130;24.732;2023-07-29T07:36:15;99284.75;;;35.54;23.65
5755;BME280;2902;42.130;24.732;2023-07-29T07:38:42;99281.66;;;35.37;24.27
5755;BME280;2902;42.130;24.732;2023-07-29T07:41:10;99285.44;;;35.29;24.04
5755;BME280;2902;42.130;24.732;2023-07-29T07:43:38;99280.34;;;35.31;24.40
5755;BME280;2902;42.130;24.732;2023-07-29T07:46:05;99274.38;;;35.29;23.67
5755;BME280;2902;42.130;24.732;2023-07-29T07:48:31;99275.50;;;34.90;24.90
5755;BME280;2902;42.130;24.732;2023-07-29T07:50:58;99274.63;;;35.05;24.29
5755;BME280;2902;42.130;24.732;2023-07-29T07:53:25;99268.09;;;35.13;24.18
5755;BME280;2902;42.130;24.732;2023-07-29T07:55:52;99268.41;;;35.27;23.82
5755;BME280;2902;42.130;24.732;2023-07-29T07:58:20;99269.88;;;35.40;24.36
5755;BME280;2902;42.130;24.732;2023-07-29T08:00:47;99257.28;;;35.61;24.11
5755;BME280;2902;42.130;24.732;2023-07-29T08:03:13;99260.81;;;35.81;23.57
5755;BME280;2902;42.130;24.732;2023-07-29T08:05:40;99262.75;;;36.03;23.74
5755;BME280;2902;42.130;24.732;2023-07-29T08:08:07;99251.88;;;36.13;23.24
5755;BME280;2902;42.130;24.732;2023-07-29T08:10:33;99248.75;;;36.15;23.28
5755;BME280;2902;42.130;24.732;2023-07-29T08:13:01;99256.56;;;36.32;23.89
5755;BME280;2902;42.130;24.732;2023-07-29T08:15:29;99251.47;;;36.34;24.06
5755;BME280;2902;42.130;24.732;2023-07-29T08:17:55;99250.16;;;36.05;24.44
5755;BME280;2902;42.130;24.732;2023-07-29T08:20:22;99237.34;;;35.94;24.03
5755;BME280;2902;42.130;24.732;2023-07-29T08:22:49;99242.56;;;35.99;24.33
5755;BME280;2902;42.130;24.732;2023-07-29T08:25:15;99235.09;;;36.03;25.02
5755;BME280;2902;42.130;24.732;2023-07-29T08:27:42;99240.59;;;35.99;25.16
5755;BME280;2902;42.130;24.732;2023-07-29T08:30:09;99238.41;;;36.12;23.78
5755;BME280;2902;42.130;24.732;2023-07-29T08:32:37;99230.03;;;35.82;24.40
5755;BME280;2902;42.130;24.732;2023-07-29T08:35:05;99231.81;;;35.94;24.43
5755;BME280;2902;42.130;24.732;2023-07-29T08:37:31;99228.28;;;36.19;23.00
5755;BME280;2902;42.130;24.732;2023-07-29T08:39:58;99223.56;;;36.46;23.12
5755;BME280;2902;42.130;24.732;2023-07-29T08:42:29;99217.91;;;36.65;22.71
5755;BME280;2902;42.130;24.732;2023-07-29T08:45:01;99216.97;;;36.80;23.22
5755;BME280;2902;42.130;24.732;2023-07-29T08:47:32;99204.88;;;36.95;22.83
5755;BME280;2902;42.130;24.732;2023-07-29T08:50:01;99206.56;;;37.03;22.67
5755;BME280;2902;42.130;24.732;2023-07-29T08:52:29;99210.28;;;37.14;22.36
5755;BME280;2902;42.130;24.732;2023-07-29T08:54:57;99198.28;;;37.06;22.65
5755;BME280;2902;42.130;24.732;2023-07-29T08:57:24;99200.91;;;36.92;22.71
5755;BME280;2902;42.130;24.732;2023-07-29T08:59:52;99201.19;;;36.84;22.79
5755;BME280;2902;42.130;24.732;2023-07-29T09:02:19;99206.31;;;36.56;23.09
5755;BME280;2902;42.130;24.732;2023-07-29T09:04:45;99182.94;;;36.53;22.54
5755;BME280;2902;42.130;24.732;2023-07-29T09:07:14;99211.22;;;36.40;22.76
5755;BME280;2902;42.130;24.732;2023-07-29T09:09:40;99207.59;;;36.62;22.95
5755;BME280;2902;42.130;24.732;2023-07-29T09:12:08;99197.31;;;36.62;22.85
5755;BME280;2902;42.130;24.732;2023-07-29T09:14:36;99201.09;;;36.77;23.01
5755;BME280;2902;42.130;24.732;2023-07-29T09:17:07;99197.47;;;36.73;22.25
5755;BME280;2902;42.130;24.732;2023-07-29T09:19:33;99183.69;;;36.76;22.25
5755;BME280;2902;42.130;24.732;2023-07-29T09:22:00;99181.91;;;36.35;23.52
5755;BME280;2902;42.130;24.732;2023-07-29T09:24:29;99182.69;;;36.36;22.38
5755;BME280;2902;42.130;24.732;2023-07-29T09:26:57;99178.97;;;36.51;22.08
5755;BME280;2902;42.130;24.732;2023-07-29T09:29:28;99178.97;;;36.51;21.86
5755;BME280;2902;42.130;24.732;2023-07-29T09:32:17;99171.50;;;36.55;22.38
5755;BME280;2902;42.130;24.732;2023-07-29T09:34:44;99160.69;;;36.46;23.20
5755;BME280;2902;42.130;24.732;2023-07-29T09:37:15;99169.44;;;36.48;23.41
5755;BME280;2902;42.130;24.732;2023-07-29T09:39:45;99153.53;;;36.42;22.67
5755;BME280;2902;42.130;24.732;2023-07-29T09:42:17;99147.16;;;36.38;24.58
5755;BME280;2902;42.130;24.732;2023-07-29T09:44:44;99141.09;;;36.58;24.09
5755;BME280;2902;42.130;24.732;2023-07-29T09:47:19;99149.19;;;36.70;22.68
5755;BME280;2902;42.130;24.732;2023-07-29T09:49:47;99142.00;;;36.66;22.31
5755;BME280;2902;42.130;24.732;2023-07-29T09:52:15;99151.41;;;36.06;22.06
5755;BME280;2902;42.130;24.732;2023-07-29T09:54:42;99153.09;;;35.88;21.27
5755;BME280;2902;42.130;24.732;2023-07-29T09:57:12;99152.66;;;35.86;21.07
5755;BME280;2902;42.130;24.732;2023-07-29T09:59:40;99140.94;;;35.96;21.62
5755;BME280;2902;42.130;24.732;2023-07-29T10:02:10;99138.63;;;35.98;21.50
5755;BME280;2902;42.130;24.732;2023-07-29T10:04:40;99136.06;;;36.12;21.51
5755;BME280;2902;42.130;24.732;2023-07-29T10:07:08;99145.47;;;36.30;21.62
5755;BME280;2902;42.130;24.732;2023-07-29T10:09:36;99147.69;;;36.21;21.24
5755;BME280;2902;42.130;24.732;2023-07-29T10:12:06;99139.69;;;36.42;21.17
5755;BME280;2902;42.130;24.732;2023-07-29T10:14:34;99132.41;;;36.60;20.44
5755;BME280;2902;42.130;24.732;2023-07-29T10:17:02;99132.50;;;36.37;21.01
5755;BME280;2902;42.130;24.732;2023-07-29T10:19:30;99133.00;;;36.17;20.70
5755;BME280;2902;42.130;24.732;2023-07-29T10:21:59;99126.66;;;35.90;20.92
5755;BME280;2902;42.130;24.732;2023-07-29T10:24:30;99132.56;;;35.44;21.28
5755;BME280;2902;42.130;24.732;2023-07-29T10:26:58;99131.34;;;35.41;20.91
5755;BME280;2902;42.130;24.732;2023-07-29T10:29:29;99130.56;;;35.67;21.01
5755;BME280;2902;42.130;24.732;2023-07-29T10:32:01;99123.94;;;35.94;21.90
5755;BME280;2902;42.130;24.732;2023-07-29T10:34:29;99116.38;;;35.91;22.28
5755;BME280;2902;42.130;24.732;2023-07-29T10:36:56;99110.97;;;35.98;21.49
5755;BME280;2902;42.130;24.732;2023-07-29T10:39:24;99108.03;;;36.13;20.76
5755;BME280;2902;42.130;24.732;2023-07-29T10:41:59;99108.19;;;36.24;20.44
5755;BME280;2902;42.130;24.732;2023-07-29T10:44:45;99105.16;;;36.32;20.36
5755;BME280;2902;42.130;24.732;2023-07-29T10:47:16;99106.84;;;36.40;21.00
5755;BME280;2902;42.130;24.732;2023-07-29T10:49:44;99092.81;;;36.56;21.33
5755;BME280;2902;42.130;24.732;2023-07-29T10:52:13;99108.19;;;36.53;20.14
5755;BME280;2902;42.130;24.732;2023-07-29T10:54:44;99096.78;;;35.99;20.74
5755;BME280;2902;42.130;24.732;2023-07-29T10:57:14;99091.50;;;36.17;20.28
5755;BME280;2902;42.130;24.732;2023-07-29T10:59:53;99090.31;;;35.92;20.31
5755;BME280;2902;42.130;24.732;2023-07-29T11:02:28;99089.91;;;35.90;21.51
5755;BME280;2902;42.130;24.732;2023-07-29T11:04:56;99084.13;;;35.98;20.63
5755;BME280;2902;42.130;24.732;2023-07-29T11:07:23;99084.69;;;35.85;21.20
5755;BME280;2902;42.130;24.732;2023-07-29T11:10:00;99079.69;;;35.68;20.71
5755;BME280;2902;42.130;24.732;2023-07-29T11:12:41;99069.16;;;36.03;20.52
5755;BME280;2902;42.130;24.732;2023-07-29T11:15:15;99074.88;;;35.65;20.26
5755;BME280;2902;42.130;24.732;2023-07-29T11:17:45;99075.00;;;35.72;20.60
5755;BME280;2902;42.130;24.732;2023-07-29T11:20:13;99062.69;;;35.43;20.52
5755;BME280;2902;42.130;24.732;2023-07-29T11:22:41;99067.50;;;35.72;21.18
5755;BME280;2902;42.130;24.732;2023-07-29T11:25:09;99064.72;;;35.72;20.10
5755;BME280;2902;42.130;24.732;2023-07-29T11:27:36;99059.44;;;35.86;19.83
5755;BME280;2902;42.130;24.732;2023-07-29T11:30:05;99057.25;;;35.73;19.97
5755;BME280;2902;42.130;24.732;2023-07-29T11:32:32;99053.66;;;35.72;20.21
5755;BME280;2902;42.130;24.732;2023-07-29T11:35:03;99056.38;;;35.69;19.78
5755;BME280;2902;42.130;24.732;2023-07-29T11:37:30;99053.84;;;35.83;19.81
5755;BME280;2902;42.130;24.732;2023-07-29T11:39:57;99044.59;;;35.98;20.67
5755;BME280;2902;42.130;24.732;2023-07-29T11:42:24;99040.09;;;36.16;20.37
5755;BME280;2902;42.130;24.732;2023-07-29T11:44:52;99042.00;;;36.38;19.79
5755;BME280;2902;42.130;24.732;2023-07-29T11:47:19;99039.22;;;36.38;20.23
5755;BME280;2902;42.130;24.732;2023-07-29T11:49:46;99035.19;;;36.32;20.28
5755;BME280;2902;42.130;24.732;2023-07-29T11:52:14;99034.84;;;36.37;20.70
5755;BME280;2902;42.130;24.732;2023-07-29T11:54:44;99027.91;;;36.50;20.53
5755;BME280;2902;42.130;24.732;2023-07-29T11:57:12;99027.38;;;36.41;20.71
5755;BME280;2902;42.130;24.732;2023-07-29T11:59:39;99032.59;;;36.46;20.45
5755;BME280;2902;42.130;24.732;2023-07-29T12:02:09;99026.16;;;35.79;20.83
5755;BME280;2902;42.130;24.732;2023-07-29T12:04:37;99019.72;;;35.72;21.00
5755;BME280;2902;42.130;24.732;2023-07-29T12:07:05;99020.84;;;35.71;20.68
5755;BME280;2902;42.130;24.732;2023-07-29T12:09:34;99017.44;;;35.77;20.72
5755;BME280;2902;42.130;24.732;2023-07-29T12:12:01;99017.78;;;35.27;21.52
5755;BME280;2902;42.130;24.732;2023-07-29T12:14:29;99009.59;;;35.31;21.38
5755;BME280;2902;42.130;24.732;2023-07-29T12:16:56;99011.34;;;35.20;21.88
5755;BME280;2902;42.130;24.732;2023-07-29T12:19:31;99008.28;;;35.25;21.50
5755;BME280;2902;42.130;24.732;2023-07-29T12:21:58;99002.69;;;35.44;21.62
5755;BME280;2902;42.130;24.732;2023-07-29T12:24:25;98999.09;;;35.40;21.84
5755;BME280;2902;42.130;24.732;2023-07-29T12:26:53;98991.69;;;34.99;21.74
5755;BME280;2902;42.130;24.732;2023-07-29T12:29:20;98998.03;;;35.25;21.30
5755;BME280;2902;42.130;24.732;2023-07-29T12:31:46;98995.28;;;35.25;21.02
5755;BME280;2902;42.130;24.732;2023-07-29T12:34:17;98993.13;;;34.93;21.16
5755;BME280;2902;42.130;24.732;2023-07-29T12:36:46;98994.75;;;34.94;21.11
5755;BME280;2902;42.130;24.732;2023-07-29T12:39:21;98992.09;;;35.01;21.06
5755;BME280;2902;42.130;24.732;2023-07-29T12:41:49;98987.31;;;34.98;20.81
5755;BME280;2902;42.130;24.732;2023-07-29T12:44:17;98979.25;;;35.12;20.97
5755;BME280;2902;42.130;24.732;2023-07-29T12:46:44;98976.25;;;35.20;20.81
5755;BME280;2902;42.130;24.732;2023-07-29T12:49:10;98977.31;;;34.90;20.90
5755;BME280;2902;42.130;24.732;2023-07-29T12:51:37;98971.53;;;34.98;21.16
5755;BME280;2902;42.130;24.732;2023-07-29T12:54:04;98976.75;;;35.03;20.92
5755;BME280;2902;42.130;24.732;2023-07-29T12:56:31;98976.81;;;35.07;20.36
5755;BME280;2902;42.130;24.732;2023-07-29T12:58:58;98974.09;;;35.10;20.69
5755;BME280;2902;42.130;24.732;2023-07-29T13:01:26;98976.91;;;35.14;21.17
5755;BME280;2902;42.130;24.732;2023-07-29T13:03:53;98976.75;;;35.03;20.17
5755;BME280;2902;42.130;24.732;2023-07-29T13:06:21;98977.59;;;35.07;20.18
5755;BME280;2902;42.130;24.732;2023-07-29T13:08:48;98986.69;;;35.08;20.27
5755;BME280;2902;42.130;24.732;2023-07-29T13:11:16;98985.84;;;35.04;20.86
5755;BME280;2902;42.130;24.732;2023-07-29T13:13:42;98986.19;;;35.02;20.24